Time;durP1;ratioP1;P1;durP2;ratioP2;P2;SDS_P1;SDS_P2;PMS_P1;PMS_P2;Temp;Humidity;BMP_temperature;BMP_pressure;BME280_temperature;BME280_humidity;BME280_pressure;Samples;Min_cycle;Max_cycle;Signal;HPM_P1;HPM_P2
2022/09/08 00:00:51;;;;;;;9.32;2.22;;;18.70;99.90;;;;;;5072286;28;20065;-74
2022/09/08 00:03:20;;;;;;;5.47;1.98;;;18.80;99.90;;;;;;5073883;28;20020;-75
2022/09/08 00:05:54;;;;;;;6.90;2.60;;;18.80;99.90;;;;;;5074459;28;20019;-75
2022/09/08 00:08:20;;;;;;;6.35;2.10;;;18.80;99.90;;;;;;5076479;28;20134;-75
2022/09/08 00:10:50;;;;;;;9.43;2.38;;;18.80;99.90;;;;;;5071067;28;20104;-75
2022/09/08 00:13:16;;;;;;;7.18;2.75;;;18.80;99.90;;;;;;5056685;28;20032;-75
2022/09/08 00:15:42;;;;;;;10.65;2.75;;;18.80;99.90;;;;;;5059708;28;20025;-75
2022/09/08 00:18:08;;;;;;;7.72;2.78;;;18.80;99.90;;;;;;5060177;28;20029;-75
2022/09/08 00:20:34;;;;;;;9.27;2.72;;;18.80;99.90;;;;;;5061298;28;20033;-75
2022/09/08 00:23:00;;;;;;;8.27;2.83;;;18.80;99.90;;;;;;5059952;28;20013;-75
2022/09/08 00:25:26;;;;;;;8.93;3.03;;;18.70;99.90;;;;;;5071221;28;20027;-75
2022/09/08 00:27:52;;;;;;;7.07;2.60;;;18.70;99.90;;;;;;5061847;28;20023;-75
2022/09/08 00:30:18;;;;;;;5.18;2.40;;;18.60;99.90;;;;;;5069562;28;20028;-75
2022/09/08 00:32:44;;;;;;;6.30;2.20;;;18.60;99.90;;;;;;5065294;28;20025;-75
2022/09/08 00:35:14;;;;;;;7.50;2.08;;;18.60;99.90;;;;;;5076089;28;20037;-74
2022/09/08 00:37:41;;;;;;;13.33;2.67;;;18.50;99.90;;;;;;5075409;28;20128;-75
2022/09/08 00:40:07;;;;;;;8.45;2.22;;;18.40;99.90;;;;;;5056952;28;20029;-75
2022/09/08 00:42:33;;;;;;;9.82;3.08;;;18.40;99.90;;;;;;5057263;28;20025;-75
2022/09/08 00:44:59;;;;;;;7.85;2.72;;;18.40;99.90;;;;;;5059713;28;20017;-75
2022/09/08 00:47:42;;;;;;;8.73;2.80;;;18.30;99.90;;;;;;5060208;28;20481;-75
2022/09/08 00:50:25;;;;;;;5.72;2.58;;;18.20;99.90;;;;;;5059942;28;20382;-75
2022/09/08 00:53:00;;;;;;;6.55;2.92;;;18.20;99.90;;;;;;5065371;28;20028;-75
2022/09/08 00:55:31;;;;;;;7.25;2.40;;;18.10;99.90;;;;;;5061831;28;20024;-75
2022/09/08 00:57:57;;;;;;;8.18;3.17;;;18.10;99.90;;;;;;5069325;28;20104;-75
2022/09/08 01:00:24;;;;;;;9.02;2.50;;;18.00;99.90;;;;;;5066121;28;20059;-75
2022/09/08 01:02:50;;;;;;;9.52;2.95;;;18.00;99.90;;;;;;5071583;28;20017;-75
2022/09/08 01:05:20;;;;;;;7.32;2.58;;;18.00;99.90;;;;;;5068963;28;20608;-75
2022/09/08 01:14:06;;;;;;;6.43;2.53;;;17.80;99.90;;;;;;5070833;28;20033;-76
2022/09/08 01:16:41;;;;;;;8.43;2.80;;;17.80;99.90;;;;;;5056095;28;20030;-76
2022/09/08 01:19:25;;;;;;;6.82;2.58;;;17.70;99.90;;;;;;5059258;28;20044;-76
2022/09/08 01:22:12;;;;;;;10.25;3.00;;;17.70;99.90;;;;;;5062194;28;20082;-76
2022/09/08 01:24:58;;;;;;;6.05;2.33;;;17.70;99.90;;;;;;5073178;28;20066;-76
2022/09/08 01:27:29;;;;;;;4.28;2.10;;;17.60;99.90;;;;;;5074803;28;20032;-76
2022/09/08 01:30:04;;;;;;;11.68;3.15;;;17.60;99.90;;;;;;5065517;28;20021;-76
2022/09/08 01:32:40;;;;;;;7.38;3.05;;;17.60;99.90;;;;;;5070762;28;20024;-76
2022/09/08 01:35:07;;;;;;;9.90;2.80;;;17.50;99.90;;;;;;5073950;28;20051;-76
2022/09/08 01:37:33;;;;;;;8.25;2.75;;;17.50;99.90;;;;;;5075374;28;20025;-76
2022/09/08 01:39:59;;;;;;;6.05;2.38;;;17.40;99.90;;;;;;5075530;28;20482;-75
2022/09/08 01:42:25;;;;;;;8.18;2.50;;;17.40;99.90;;;;;;5063508;28;20021;-75
2022/09/08 01:44:50;;;;;;;8.43;2.67;;;17.30;99.90;;;;;;5071586;28;20018;-76
2022/09/08 01:47:17;;;;;;;6.75;2.83;;;17.30;99.90;;;;;;5059550;28;20052;-75
2022/09/08 01:49:42;;;;;;;8.48;2.72;;;17.20;99.90;;;;;;5064295;28;20062;-75
2022/09/08 01:52:09;;;;;;;10.30;2.88;;;17.20;99.90;;;;;;5065235;28;20033;-76
2022/09/08 01:54:34;;;;;;;7.13;2.45;;;17.20;99.90;;;;;;5070292;28;20052;-76
2022/09/08 01:57:01;;;;;;;8.88;2.53;;;17.20;99.90;;;;;;5072182;28;20050;-76
2022/09/08 01:59:27;;;;;;;8.57;2.42;;;17.20;99.90;;;;;;5073660;28;20028;-75
2022/09/08 02:01:53;;;;;;;9.93;2.90;;;17.10;99.90;;;;;;5071724;28;20093;-75
2022/09/08 02:04:19;;;;;;;12.82;3.55;;;17.10;99.90;;;;;;5075711;28;20017;-75
2022/09/08 02:06:45;;;;;;;3.92;2.25;;;17.00;99.90;;;;;;5074689;28;20029;-76
2022/09/08 02:09:12;;;;;;;6.78;2.47;;;17.00;99.90;;;;;;5078792;28;20028;-76
2022/09/08 02:11:38;;;;;;;8.13;2.55;;;17.00;99.90;;;;;;5079896;28;20035;-75
2022/09/08 02:14:04;;;;;;;4.53;2.97;;;17.00;99.90;;;;;;5060718;28;20021;-76
2022/09/08 02:16:30;;;;;;;7.72;3.38;;;16.90;99.90;;;;;;5061140;28;20032;-76
2022/09/08 02:18:56;;;;;;;10.38;2.78;;;16.90;99.90;;;;;;5062274;28;20520;-76
2022/09/08 02:21:27;;;;;;;7.85;2.95;;;17.00;99.90;;;;;;5062376;28;20025;-75
2022/09/08 02:23:54;;;;;;;5.25;3.08;;;16.90;99.90;;;;;;5066824;28;20017;-76
2022/09/08 02:26:23;;;;;;;4.82;2.60;;;17.00;99.90;;;;;;5069016;28;20442;-76
2022/09/08 02:28:52;;;;;;;7.90;3.08;;;16.90;99.90;;;;;;5070348;28;20104;-76
2022/09/08 02:31:18;;;;;;;8.43;2.75;;;16.90;99.90;;;;;;5072692;28;20017;-75
2022/09/08 02:33:44;;;;;;;14.43;3.55;;;16.90;99.90;;;;;;5073272;28;20028;-75
2022/09/08 02:36:10;;;;;;;3.78;2.55;;;16.90;99.90;;;;;;5070134;28;20056;-76
2022/09/08 02:38:36;;;;;;;11.65;3.05;;;17.00;99.90;;;;;;5076712;28;20020;-76
2022/09/08 02:41:02;;;;;;;10.90;2.50;;;17.00;99.90;;;;;;5075637;28;20032;-75
2022/09/08 02:43:29;;;;;;;11.35;3.17;;;17.00;99.90;;;;;;5078636;28;20017;-76
2022/09/08 02:45:56;;;;;;;8.38;2.72;;;17.00;99.90;;;;;;5078256;28;20027;-76
2022/09/08 02:48:22;;;;;;;10.13;2.55;;;17.00;99.90;;;;;;5060615;28;20056;-76
2022/09/08 02:50:47;;;;;;;6.22;2.83;;;17.00;99.90;;;;;;5061914;28;20452;-76
2022/09/08 02:53:14;;;;;;;5.18;2.53;;;16.90;99.90;;;;;;5063393;28;20025;-76
2022/09/08 02:55:41;;;;;;;13.15;3.35;;;16.90;99.90;;;;;;5065138;28;20115;-76
2022/09/08 02:58:09;;;;;;;10.65;3.13;;;16.80;99.90;;;;;;5065478;28;20028;-76
2022/09/08 03:00:36;;;;;;;6.07;2.88;;;16.70;99.90;;;;;;5066135;28;20016;-76
2022/09/08 03:03:03;;;;;;;11.70;3.08;;;16.70;99.90;;;;;;5075165;28;20017;-76
2022/09/08 03:05:30;;;;;;;9.77;3.70;;;16.60;99.90;;;;;;5074099;28;20029;-76
2022/09/08 03:07:58;;;;;;;7.63;2.75;;;16.60;99.90;;;;;;5075281;28;20401;-76
2022/09/08 03:10:24;;;;;;;7.78;2.65;;;16.50;99.90;;;;;;5076824;28;20040;-76
2022/09/08 03:12:52;;;;;;;6.90;2.83;;;16.50;99.90;;;;;;5067676;28;20478;-76
2022/09/08 03:15:20;;;;;;;5.60;2.40;;;16.50;99.90;;;;;;5060915;28;20033;-76
2022/09/08 03:17:46;;;;;;;6.05;2.97;;;16.40;99.90;;;;;;5060895;28;20017;-75
2022/09/08 03:20:11;;;;;;;7.15;2.83;;;16.40;99.90;;;;;;5064038;28;20020;-76
2022/09/08 03:22:37;;;;;;;9.20;2.55;;;16.30;99.90;;;;;;5061056;28;20405;-75
2022/09/08 03:25:04;;;;;;;8.27;2.70;;;16.30;99.90;;;;;;5069098;28;20116;-75
2022/09/08 03:27:30;;;;;;;4.18;2.50;;;16.30;99.90;;;;;;5066057;28;20017;-75
2022/09/08 03:29:56;;;;;;;14.50;3.75;;;16.40;99.90;;;;;;5068695;28;20032;-75
2022/09/08 03:32:22;;;;;;;4.70;2.78;;;16.30;99.90;;;;;;5075771;28;20020;-75
2022/09/08 03:34:48;;;;;;;6.00;3.38;;;16.30;99.90;;;;;;5070251;28;20041;-75
2022/09/08 03:37:13;;;;;;;6.93;2.58;;;16.20;99.90;;;;;;5075326;28;20029;-75
2022/09/08 03:39:39;;;;;;;7.57;2.60;;;16.20;99.90;;;;;;5072951;28;20021;-75
2022/09/08 03:42:05;;;;;;;6.80;2.92;;;16.20;99.90;;;;;;5077671;28;20386;-76
2022/09/08 03:44:32;;;;;;;6.90;3.17;;;16.10;99.90;;;;;;5059886;28;20103;-76
2022/09/08 03:46:59;;;;;;;3.92;2.58;;;16.10;99.90;;;;;;5058299;28;20017;-76
2022/09/08 03:49:25;;;;;;;7.45;3.33;;;16.10;99.90;;;;;;5063132;28;20116;-76
2022/09/08 03:51:51;;;;;;;5.78;2.55;;;16.00;99.90;;;;;;5061901;28;20056;-76
2022/09/08 03:57:01;;;;;;;8.43;2.70;;;16.00;99.90;;;;;;5064555;28;20059;-76
2022/09/08 03:59:29;;;;;;;8.23;2.78;;;16.00;99.90;;;;;;5068868;28;20484;-76
2022/09/08 04:01:56;;;;;;;9.50;2.83;;;16.00;99.90;;;;;;5067131;28;20017;-76
2022/09/08 04:04:23;;;;;;;7.40;3.63;;;16.00;99.90;;;;;;5072950;28;20021;-77
2022/09/08 04:06:49;;;;;;;9.65;3.33;;;16.10;99.90;;;;;;5078439;28;20021;-75
2022/09/08 04:09:16;;;;;;;4.50;2.55;;;16.00;99.90;;;;;;5073491;28;20082;-75
2022/09/08 04:11:42;;;;;;;9.30;3.00;;;16.00;99.90;;;;;;5074126;28;20020;-76
2022/09/08 04:14:08;;;;;;;13.20;2.85;;;16.00;99.90;;;;;;5074662;28;20111;-75
2022/09/08 04:16:34;;;;;;;7.68;3.35;;;16.00;99.90;;;;;;5075714;28;20389;-76
2022/09/08 04:19:00;;;;;;;5.72;2.90;;;16.00;99.90;;;;;;5076762;28;20017;-76
2022/09/08 04:21:26;;;;;;;12.10;3.33;;;16.00;99.90;;;;;;5075887;28;20023;-76
2022/09/08 04:23:53;;;;;;;8.95;2.92;;;16.00;99.90;;;;;;5057371;28;20021;-76
2022/09/08 04:26:19;;;;;;;9.35;3.35;;;16.00;99.90;;;;;;5063534;28;20039;-76
2022/09/08 04:28:44;;;;;;;10.18;3.42;;;15.90;99.90;;;;;;5070202;28;20108;-76
2022/09/08 04:31:13;;;;;;;6.20;3.45;;;16.00;99.90;;;;;;5066609;28;20023;-75
2022/09/08 04:33:40;;;;;;;12.35;3.05;;;15.90;99.90;;;;;;5072056;28;20074;-75
2022/09/08 04:36:11;;;;;;;14.85;3.97;;;15.90;99.90;;;;;;5068605;28;20037;-76
2022/09/08 04:38:38;;;;;;;11.75;3.38;;;15.90;99.90;;;;;;5072881;28;20142;-76
2022/09/08 04:41:05;;;;;;;8.85;3.20;;;15.80;99.90;;;;;;5071291;28;20025;-76
2022/09/08 04:43:33;;;;;;;7.65;3.28;;;15.80;99.90;;;;;;5074783;28;20485;-76
2022/09/08 04:46:03;;;;;;;8.05;2.95;;;15.80;99.90;;;;;;5074727;28;20021;-76
2022/09/08 04:48:30;;;;;;;9.93;3.15;;;15.80;99.90;;;;;;5057987;28;20029;-76
2022/09/08 04:50:57;;;;;;;8.60;3.05;;;15.80;99.90;;;;;;5060183;28;20028;-76
2022/09/08 04:53:24;;;;;;;5.40;3.22;;;15.80;99.90;;;;;;5058418;28;20021;-76
2022/09/08 04:55:50;;;;;;;7.57;3.28;;;15.80;99.90;;;;;;5062754;28;20032;-75
2022/09/08 04:58:17;;;;;;;12.52;4.30;;;15.80;99.90;;;;;;5062504;28;20485;-76
2022/09/08 05:00:43;;;;;;;14.05;3.15;;;15.80;99.90;;;;;;5065125;28;20028;-76
2022/09/08 05:03:09;;;;;;;8.88;3.38;;;15.80;99.90;;;;;;5066118;28;20032;-76
2022/09/08 05:05:38;;;;;;;8.80;3.45;;;15.70;99.90;;;;;;5066289;28;20053;-76
2022/09/08 05:08:04;;;;;;;8.75;4.00;;;15.80;99.90;;;;;;5069313;28;20021;-76
2022/09/08 05:10:34;;;;;;;13.48;3.92;;;15.70;99.90;;;;;;5067282;28;20021;-76
2022/09/08 05:13:00;;;;;;;6.20;3.15;;;15.80;99.90;;;;;;5071911;28;20117;-76
2022/09/08 05:15:27;;;;;;;11.73;3.40;;;15.80;99.90;;;;;;5071595;28;20029;-76
2022/09/08 05:17:54;;;;;;;13.70;4.43;;;15.70;99.90;;;;;;5073451;28;20116;-78
2022/09/08 05:20:21;;;;;;;9.48;3.45;;;15.70;99.90;;;;;;5075481;28;20033;-77
2022/09/08 05:22:47;;;;;;;8.73;2.95;;;15.70;99.90;;;;;;5066239;28;20052;-77
2022/09/08 05:25:13;;;;;;;7.38;3.85;;;15.70;99.90;;;;;;5063422;28;20086;-77
2022/09/08 05:27:39;;;;;;;9.68;3.05;;;15.70;99.90;;;;;;5062914;28;20025;-77
2022/09/08 05:30:05;;;;;;;11.02;3.80;;;15.70;99.90;;;;;;5067276;28;20024;-77
2022/09/08 05:32:31;;;;;;;9.43;3.83;;;15.70;99.90;;;;;;5074607;28;20024;-77
2022/09/08 05:34:57;;;;;;;6.82;3.22;;;15.60;99.90;;;;;;5075160;28;20036;-76
2022/09/08 05:37:27;;;;;;;6.95;3.80;;;15.60;99.90;;;;;;5075586;28;20028;-77
2022/09/08 05:39:54;;;;;;;6.97;3.83;;;15.70;99.90;;;;;;5066340;28;20025;-77
2022/09/08 05:42:20;;;;;;;11.90;3.97;;;15.70;99.90;;;;;;5080236;28;20399;-77
2022/09/08 05:44:46;;;;;;;11.57;4.38;;;15.70;99.90;;;;;;5076785;28;20021;-77
2022/09/08 05:47:12;;;;;;;12.27;4.05;;;15.70;99.90;;;;;;5076589;28;20031;-77
2022/09/08 05:49:38;;;;;;;10.48;3.20;;;15.70;99.90;;;;;;5077420;28;20046;-77
2022/09/08 05:52:03;;;;;;;7.40;3.58;;;15.70;99.90;;;;;;5069094;28;20032;-76
2022/09/08 05:54:29;;;;;;;9.07;3.38;;;15.70;99.90;;;;;;5072438;28;20017;-77
2022/09/08 05:56:57;;;;;;;8.13;3.60;;;15.70;99.90;;;;;;5074282;28;20059;-77
2022/09/08 05:59:23;;;;;;;13.75;3.47;;;15.80;99.90;;;;;;5076283;28;20013;-77
2022/09/08 06:01:49;;;;;;;8.85;3.55;;;15.80;99.90;;;;;;5075393;28;20086;-77
2022/09/08 06:04:15;;;;;;;7.75;3.65;;;15.80;99.90;;;;;;5076114;28;20021;-76
2022/09/08 06:06:41;;;;;;;5.63;3.25;;;15.90;99.90;;;;;;5078817;28;20036;-77
2022/09/08 06:09:07;;;;;;;8.73;3.90;;;15.90;99.90;;;;;;5074104;28;20558;-77
2022/09/08 06:11:34;;;;;;;9.80;3.42;;;16.00;99.90;;;;;;5059319;28;20028;-77
2022/09/08 06:14:01;;;;;;;12.07;3.58;;;16.00;99.90;;;;;;5065195;28;20028;-77
2022/09/08 06:16:27;;;;;;;9.90;3.35;;;16.10;99.90;;;;;;5075151;28;20050;-77
2022/09/08 06:18:53;;;;;;;9.70;3.67;;;16.20;99.90;;;;;;5068357;28;20370;-77
2022/09/08 06:21:24;;;;;;;7.72;3.20;;;16.20;99.90;;;;;;5078792;28;20078;-77
2022/09/08 06:23:53;;;;;;;9.65;4.25;;;16.40;99.90;;;;;;5076326;28;20098;-77
2022/09/08 06:26:28;;;;;;;11.63;3.88;;;16.40;99.90;;;;;;5065126;28;20501;-77
2022/09/08 06:29:19;;;;;;;13.43;4.10;;;16.50;99.90;;;;;;5079373;28;20013;-77
2022/09/08 06:32:02;;;;;;;15.73;4.90;;;16.50;99.90;;;;;;5075750;28;20020;-77
2022/09/08 06:34:58;;;;;;;21.70;4.22;;;16.60;99.90;;;;;;5073890;28;20021;-77
2022/09/08 06:37:27;;;;;;;13.70;4.25;;;16.60;99.90;;;;;;5076653;28;20044;-77
2022/09/08 06:40:22;;;;;;;12.38;4.45;;;16.70;99.90;;;;;;5076557;28;20031;-77
2022/09/08 06:43:27;;;;;;;13.68;4.63;;;16.80;99.90;;;;;;5063158;28;20032;-77
2022/09/08 06:45:56;;;;;;;11.82;3.63;;;16.90;99.90;;;;;;5052288;28;20033;-77
2022/09/08 06:48:37;;;;;;;13.10;3.90;;;17.10;99.90;;;;;;5062330;28;20029;-77
2022/09/08 06:51:28;;;;;;;7.88;3.38;;;17.20;99.90;;;;;;5066995;28;20048;-77
2022/09/08 06:54:09;;;;;;;13.23;4.32;;;17.30;99.90;;;;;;5078307;28;20400;-77
2022/09/08 06:57:02;;;;;;;8.43;3.72;;;17.50;99.90;;;;;;5069125;28;20021;-77
2022/09/08 06:59:49;;;;;;;9.40;4.03;;;17.70;99.90;;;;;;5081104;28;20048;-77
2022/09/08 07:02:41;;;;;;;8.20;3.97;;;17.90;99.90;;;;;;5072664;28;20043;-77
2022/09/08 07:05:06;;;;;;;9.40;3.63;;;18.10;99.90;;;;;;5052624;28;20041;-77
2022/09/08 07:07:54;;;;;;;9.27;3.97;;;18.20;99.90;;;;;;5074443;28;20580;-77
2022/09/08 07:10:26;;;;;;;12.20;3.53;;;18.30;99.90;;;;;;5074931;28;20021;-77
2022/09/08 07:12:59;;;;;;;11.95;3.95;;;18.40;99.90;;;;;;5075252;28;20017;-77
2022/09/08 07:15:57;;;;;;;7.15;2.88;;;18.40;99.90;;;;;;5071647;28;20074;-77
2022/09/08 07:18:50;;;;;;;6.65;3.08;;;18.40;99.90;;;;;;5070762;28;20025;-77
2022/09/08 07:21:16;;;;;;;8.77;3.17;;;18.40;99.90;;;;;;5068649;28;20029;-77
2022/09/08 07:23:43;;;;;;;8.25;3.10;;;18.50;99.90;;;;;;5067277;28;20100;-77
2022/09/08 07:26:27;;;;;;;13.60;3.00;;;18.50;99.90;;;;;;5074670;28;20029;-77
2022/09/08 07:29:01;;;;;;;9.07;3.40;;;18.50;99.90;;;;;;5070264;28;20052;-77
2022/09/08 07:31:27;;;;;;;12.05;3.60;;;18.60;99.90;;;;;;5066895;28;20501;-77
2022/09/08 07:34:02;;;;;;;12.02;3.85;;;18.70;99.90;;;;;;5073016;28;20040;-77
2022/09/08 07:36:39;;;;;;;6.18;3.00;;;18.80;99.90;;;;;;5070317;28;20049;-77
2022/09/08 07:39:22;;;;;;;11.55;3.67;;;19.10;99.90;;;;;;5073976;28;20020;-77
2022/09/08 07:41:53;;;;;;;8.50;3.00;;;19.20;99.90;;;;;;5066054;28;20024;-77
2022/09/08 07:44:20;;;;;;;8.82;3.03;;;19.40;99.90;;;;;;5075504;28;20025;-77
2022/09/08 07:47:09;;;;;;;13.02;2.85;;;19.50;99.90;;;;;;5058613;28;20045;-77
2022/09/08 07:50:24;;;;;;;13.40;3.20;;;19.50;99.90;;;;;;5060689;28;20097;-77
2022/09/08 07:53:05;;;;;;;6.10;3.33;;;19.60;99.90;;;;;;5038916;28;20063;-77
2022/09/08 07:55:39;;;;;;;9.95;3.30;;;19.70;99.90;;;;;;5022571;28;20504;-77
2022/09/08 07:58:30;;;;;;;12.85;3.85;;;19.70;99.90;;;;;;5049200;28;20033;-77
2022/09/08 08:01:15;;;;;;;13.23;3.00;;;19.70;99.90;;;;;;5068619;28;20389;-77
2022/09/08 08:04:10;;;;;;;9.10;3.40;;;19.80;99.90;;;;;;5071303;28;20024;-77
2022/09/08 08:06:41;;;;;;;12.80;3.08;;;19.90;99.90;;;;;;5025230;28;20100;-77
2022/09/08 08:09:35;;;;;;;8.25;2.60;;;20.10;99.90;;;;;;5076226;28;20029;-77
2022/09/08 08:12:32;;;;;;;7.22;2.83;;;20.40;99.90;;;;;;5075198;28;20035;-77
2022/09/08 08:15:10;;;;;;;8.38;2.63;;;20.50;99.90;;;;;;5075587;28;20028;-77
2022/09/08 08:17:44;;;;;;;13.70;3.22;;;20.70;99.90;;;;;;5069193;28;20031;-77
2022/09/08 08:20:22;;;;;;;9.02;2.38;;;20.90;99.90;;;;;;5067449;28;20037;-76
2022/09/08 08:23:21;;;;;;;9.40;2.33;;;20.90;99.90;;;;;;5072785;28;20104;-77
2022/09/08 08:25:52;;;;;;;7.32;2.72;;;21.00;99.90;;;;;;5074663;28;20505;-77
2022/09/08 08:28:19;;;;;;;11.65;1.92;;;21.10;99.90;;;;;;5074228;28;20020;-77
2022/09/08 08:31:06;;;;;;;6.65;2.10;;;21.20;99.90;;;;;;5077202;28;20031;-77
2022/09/08 08:33:36;;;;;;;7.18;2.03;;;21.30;99.90;;;;;;5058193;28;20059;-77
2022/09/08 08:36:07;;;;;;;6.60;2.22;;;21.30;99.90;;;;;;5058891;28;20076;-77
2022/09/08 08:38:37;;;;;;;3.17;1.77;;;21.30;99.90;;;;;;5061198;28;20043;-77
2022/09/08 08:41:25;;;;;;;4.80;1.80;;;21.40;99.90;;;;;;5071510;28;20531;-77
2022/09/08 08:43:57;;;;;;;6.15;2.10;;;21.50;99.90;;;;;;5069968;28;20032;-77
2022/09/08 08:46:40;;;;;;;9.10;2.50;;;21.50;99.90;;;;;;5068545;28;20031;-77
2022/09/08 08:49:27;;;;;;;9.68;2.45;;;21.50;99.90;;;;;;5064905;28;20021;-78
2022/09/08 08:52:05;;;;;;;6.45;2.28;;;21.40;99.90;;;;;;5068395;28;20020;-77
2022/09/08 08:55:07;;;;;;;11.85;2.10;;;21.60;99.90;;;;;;5072119;28;20021;-77
2022/09/08 08:57:53;;;;;;;4.80;1.88;;;21.90;99.90;;;;;;5048685;28;20035;-78
2022/09/08 09:00:21;;;;;;;5.00;2.13;;;22.00;99.90;;;;;;5072570;28;20053;-77
2022/09/08 09:03:02;;;;;;;4.03;1.83;;;22.10;99.90;;;;;;5063743;28;20020;-76
2022/09/08 09:05:36;;;;;;;6.25;1.77;;;22.10;99.90;;;;;;5073172;28;20016;-76
2022/09/08 09:08:52;;;;;;;8.18;2.25;;;22.10;99.90;;;;;;5057777;28;20151;-76
2022/09/08 09:11:50;;;;;;;4.78;1.98;;;22.30;99.90;;;;;;5020405;28;20025;-75
2022/09/08 09:14:37;;;;;;;10.85;2.60;;;22.30;99.90;;;;;;5074897;28;20036;-76
2022/09/08 09:17:16;;;;;;;10.23;2.03;;;22.60;99.90;;;;;;5063633;28;20449;-76
2022/09/08 09:20:15;;;;;;;5.70;1.75;;;22.80;99.90;;;;;;5063175;28;20021;-76
2022/09/08 09:22:55;;;;;;;7.05;2.03;;;23.10;99.90;;;;;;5069383;28;20032;-80
2022/09/08 09:25:36;;;;;;;8.73;1.92;;;23.10;99.90;;;;;;5074865;28;20097;-79
2022/09/08 09:28:37;;;;;;;7.57;1.55;;;23.10;99.90;;;;;;5068205;28;20392;-76
2022/09/08 09:31:21;;;;;;;5.35;1.98;;;23.30;99.90;;;;;;5073387;28;20021;-76
2022/09/08 09:34:15;;;;;;;8.10;1.70;;;23.30;99.90;;;;;;5073020;28;20021;-77
2022/09/08 09:36:50;;;;;;;7.40;1.60;;;23.40;99.90;;;;;;5071919;28;20518;-76
2022/09/08 09:39:36;;;;;;;7.97;2.28;;;23.60;99.90;;;;;;5066822;28;20442;-76
2022/09/08 09:42:27;;;;;;;6.60;2.03;;;23.70;99.90;;;;;;5065378;28;20036;-76
2022/09/08 09:45:08;;;;;;;7.85;1.60;;;23.90;99.90;;;;;;5063628;28;20025;-75
2022/09/08 09:47:59;;;;;;;8.27;2.00;;;24.00;99.90;;;;;;5071718;28;20028;-76
2022/09/08 09:50:44;;;;;;;6.82;1.98;;;24.00;99.90;;;;;;5053558;28;20036;-75
2022/09/08 09:53:48;;;;;;;5.82;1.75;;;24.20;99.90;;;;;;5065008;28;20008;-76
2022/09/08 09:56:54;;;;;;;9.05;1.52;;;24.30;99.80;;;;;;5063972;28;20031;-76
2022/09/08 09:59:28;;;;;;;8.00;1.85;;;24.40;99.90;;;;;;5073726;28;20021;-76
2022/09/08 10:02:05;;;;;;;4.93;1.45;;;24.50;99.90;;;;;;5063237;28;20602;-78
2022/09/08 10:05:19;;;;;;;4.40;1.35;;;24.60;97.50;;;;;;5063336;28;20028;-78
2022/09/08 10:08:09;;;;;;;3.30;1.00;;;24.50;97.60;;;;;;5025349;28;20044;-76
2022/09/08 10:10:57;;;;;;;4.50;1.23;;;24.70;97.40;;;;;;5063372;28;20124;-77
2022/09/08 10:14:04;;;;;;;6.07;1.52;;;24.90;97.10;;;;;;5069095;28;20033;-76
2022/09/08 10:16:49;;;;;;;5.82;1.60;;;24.60;95.10;;;;;;5039556;28;20072;-76
2022/09/08 10:19:44;;;;;;;2.80;1.00;;;24.60;96.20;;;;;;5072275;28;20426;-75
2022/09/08 10:22:22;;;;;;;3.67;1.45;;;24.70;94.40;;;;;;5074010;28;20025;-75
2022/09/08 10:25:13;;;;;;;6.68;1.75;;;24.90;96.10;;;;;;5070395;28;20028;-75
2022/09/08 10:28:07;;;;;;;4.15;1.10;;;25.10;94.10;;;;;;5074198;28;20024;-78
2022/09/08 10:30:35;;;;;;;4.05;1.40;;;24.90;93.20;;;;;;5066194;28;20119;-77
2022/09/08 10:33:17;;;;;;;6.60;1.33;;;25.00;94.90;;;;;;5076840;28;20436;-75
2022/09/08 10:35:47;;;;;;;4.90;1.35;;;25.00;94.20;;;;;;5075630;28;20051;-76
2022/09/08 10:38:31;;;;;;;5.85;1.17;;;25.30;94.50;;;;;;5065981;28;20508;-76
2022/09/08 10:41:06;;;;;;;4.30;1.23;;;25.30;94.10;;;;;;5071630;28;20025;-76
2022/09/08 10:43:38;;;;;;;6.13;0.98;;;25.30;92.30;;;;;;5077116;28;20029;-76
2022/09/08 10:46:21;;;;;;;4.95;1.17;;;25.40;92.90;;;;;;5076305;28;20029;-76
2022/09/08 10:48:59;;;;;;;6.10;1.10;;;25.50;93.70;;;;;;5077677;28;20077;-75
2022/09/08 10:51:36;;;;;;;3.05;1.08;;;25.40;92.50;;;;;;5058945;28;20028;-76
2022/09/08 10:54:34;;;;;;;4.97;0.90;;;25.60;92.50;;;;;;5060289;28;20714;-75
2022/09/08 10:57:19;;;;;;;6.45;1.13;;;25.60;90.60;;;;;;5069787;28;20491;-76
2022/09/08 10:59:56;;;;;;;3.97;1.20;;;25.40;92.50;;;;;;5063037;28;20045;-75
2022/09/08 11:02:49;;;;;;;8.70;1.95;;;25.60;92.40;;;;;;5066691;28;20032;-77
2022/09/08 11:05:37;;;;;;;3.53;1.45;;;25.50;91.50;;;;;;5078358;28;20020;-76
2022/09/08 11:08:32;;;;;;;7.05;1.73;;;25.50;91.70;;;;;;5070876;28;20040;-76
2022/09/08 11:11:22;;;;;;;5.95;1.63;;;25.30;93.10;;;;;;5081032;28;20024;-75
2022/09/08 11:14:03;;;;;;;8.38;1.20;;;25.00;92.00;;;;;;5075268;28;20112;-75
2022/09/08 11:16:47;;;;;;;3.55;1.35;;;25.30;92.20;;;;;;5073088;28;20074;-76
2022/09/08 11:19:50;;;;;;;7.10;1.52;;;25.50;92.50;;;;;;5075366;28;20032;-76
2022/09/08 11:22:26;;;;;;;6.57;1.90;;;25.50;92.80;;;;;;5078847;28;20021;-76
2022/09/08 11:24:57;;;;;;;5.45;1.58;;;25.70;91.70;;;;;;5071353;28;20043;-76
2022/09/08 11:27:51;;;;;;;4.03;1.60;;;25.90;91.80;;;;;;5059055;28;20036;-76
2022/09/08 11:30:45;;;;;;;3.67;1.50;;;26.00;91.00;;;;;;5073988;28;20021;-76
2022/09/08 11:33:51;;;;;;;4.32;0.90;;;26.00;90.40;;;;;;5037534;28;20561;-76
2022/09/08 11:36:39;;;;;;;3.67;1.13;;;26.40;90.20;;;;;;5041912;28;20066;-77
2022/09/08 11:39:20;;;;;;;4.05;1.13;;;26.40;90.00;;;;;;5076298;28;20031;-76
2022/09/08 11:42:24;;;;;;;4.55;1.17;;;26.40;87.30;;;;;;5059198;28;20021;-76
2022/09/08 11:45:22;;;;;;;7.18;1.50;;;26.60;89.20;;;;;;5060310;28;20017;-75
2022/09/08 11:48:03;;;;;;;3.50;1.25;;;26.50;86.80;;;;;;5073301;28;20413;-76
2022/09/08 11:50:52;;;;;;;4.72;1.45;;;26.70;86.30;;;;;;5062366;28;20478;-76
2022/09/08 11:53:49;;;;;;;3.80;1.00;;;26.80;84.60;;;;;;5066914;28;20028;-76
2022/09/08 11:56:53;;;;;;;6.50;1.30;;;27.10;84.80;;;;;;5079864;28;20028;-76
2022/09/08 11:59:38;;;;;;;3.60;1.13;;;27.20;85.10;;;;;;5072195;28;20035;-76
2022/09/08 12:02:23;;;;;;;6.43;1.10;;;27.30;85.40;;;;;;5068270;28;20025;-76
2022/09/08 12:05:07;;;;;;;7.75;1.55;;;27.40;81.90;;;;;;5073598;28;20024;-76
2022/09/08 12:07:48;;;;;;;5.60;1.00;;;27.40;81.60;;;;;;5075314;28;20032;-76
2022/09/08 12:10:43;;;;;;;3.72;1.25;;;27.10;83.90;;;;;;5074368;28;20021;-76
2022/09/08 12:13:56;;;;;;;7.57;1.45;;;27.30;83.30;;;;;;5077080;28;20024;-76
2022/09/08 12:16:50;;;;;;;3.28;1.15;;;27.50;80.40;;;;;;5044388;28;20067;-78
2022/09/08 12:19:35;;;;;;;4.38;1.10;;;27.30;79.30;;;;;;5059386;28;20017;-76
2022/09/08 12:22:13;;;;;;;4.65;1.42;;;27.20;80.30;;;;;;5062300;28;20074;-76
2022/09/08 12:25:03;;;;;;;6.25;1.38;;;26.90;80.20;;;;;;5065208;28;20016;-77
2022/09/08 12:27:40;;;;;;;4.75;1.20;;;26.80;79.60;;;;;;5066212;28;20024;-76
2022/09/08 12:30:20;;;;;;;2.50;1.10;;;26.90;80.80;;;;;;5074614;28;20460;-76
2022/09/08 12:33:11;;;;;;;3.65;1.30;;;26.70;81.10;;;;;;5068867;28;20104;-76
2022/09/08 12:35:58;;;;;;;4.35;1.25;;;26.90;83.00;;;;;;5081701;28;20098;-76
2022/09/08 12:38:45;;;;;;;3.63;1.08;;;27.20;79.60;;;;;;5059116;28;20029;-76
2022/09/08 12:41:20;;;;;;;2.83;1.00;;;27.20;79.60;;;;;;5062067;28;20020;-75
2022/09/08 12:43:46;;;;;;;5.22;1.63;;;27.40;78.60;;;;;;5075672;28;20031;-76
2022/09/08 12:47:02;;;;;;;4.25;1.00;;;27.40;79.10;;;;;;5067996;28;20377;-76
2022/09/08 12:49:57;;;;;;;4.45;1.13;;;27.60;83.40;;;;;;5069309;28;20020;-76
2022/09/08 12:52:43;;;;;;;5.10;1.40;;;27.80;78.60;;;;;;5069070;28;20025;-75
2022/09/08 12:55:26;;;;;;;3.60;1.15;;;28.10;80.00;;;;;;5067583;28;20060;-75
2022/09/08 12:57:54;;;;;;;3.95;1.20;;;27.90;76.10;;;;;;5071207;28;20050;-76
2022/09/08 13:00:27;;;;;;;3.30;1.13;;;27.90;76.30;;;;;;5072158;28;20549;-76
2022/09/08 13:03:01;;;;;;;3.15;1.38;;;27.50;77.20;;;;;;5088263;28;20092;-75
2022/09/08 13:05:51;;;;;;;3.10;0.90;;;27.80;78.30;;;;;;5073839;28;20070;-76
2022/09/08 13:08:35;;;;;;;5.30;1.07;;;27.80;75.80;;;;;;5075885;28;20028;-76
2022/09/08 13:11:25;;;;;;;5.03;1.40;;;27.80;76.30;;;;;;5069879;28;20489;-76
2022/09/08 13:13:59;;;;;;;6.78;1.55;;;27.70;78.20;;;;;;5060052;28;20016;-76
2022/09/08 13:16:48;;;;;;;5.88;1.63;;;27.70;77.50;;;;;;5058487;28;20417;-76
2022/09/08 13:19:39;;;;;;;8.35;1.30;;;27.80;80.60;;;;;;5063980;28;20459;-76
2022/09/08 13:22:54;;;;;;;5.85;1.00;;;27.90;80.90;;;;;;5067757;28;20494;-76
2022/09/08 13:25:20;;;;;;;4.95;1.52;;;27.80;81.00;;;;;;5024284;28;20025;-76
2022/09/08 13:28:24;;;;;;;2.83;1.10;;;27.70;79.10;;;;;;5065989;28;20037;-76
2022/09/08 13:31:09;;;;;;;5.03;1.05;;;27.80;79.50;;;;;;5066364;28;20013;-76
2022/09/08 13:34:01;;;;;;;2.83;1.15;;;28.00;77.00;;;;;;5063712;28;20021;-75
2022/09/08 13:36:45;;;;;;;5.25;1.65;;;28.30;77.10;;;;;;5074523;28;20408;-77
2022/09/08 13:40:09;;;;;;;3.95;1.48;;;28.20;74.60;;;;;;5061991;28;20071;-75
2022/09/08 13:42:46;;;;;;;3.78;1.48;;;28.40;76.20;;;;;;5051464;28;20021;-75